sensor_id;sensor_type;location;lat;lon;timestamp;P1;durP1;ratioP1;P2;durP2;ratioP2
59074;SDS011;44860;53.020;6.738;2023-10-13T00:01:33;66.35;;;37.15;;
59074;SDS011;44860;53.020;6.738;2023-10-13T00:03:59;59.83;;;36.42;;
59074;SDS011;44860;53.020;6.738;2023-10-13T00:06:30;63.65;;;37.95;;
59074;SDS011;44860;53.020;6.738;2023-10-13T00:08:56;60.47;;;36.50;;
59074;SDS011;44860;53.020;6.738;2023-10-13T00:11:21;65.55;;;34.53;;
59074;SDS011;44860;53.020;6.738;2023-10-13T00:13:47;57.63;;;34.85;;
59074;SDS011;44860;53.020;6.738;2023-10-13T00:16:19;51.78;;;33.20;;
59074;SDS011;44860;53.020;6.738;2023-10-13T00:18:50;64.95;;;36.05;;
59074;SDS011;44860;53.020;6.738;2023-10-13T00:21:19;53.08;;;33.45;;
59074;SDS011;44860;53.020;6.738;2023-10-13T00:23:56;55.85;;;33.08;;
59074;SDS011;44860;53.020;6.738;2023-10-13T00:26:23;50.28;;;32.53;;
59074;SDS011;44860;53.020;6.738;2023-10-13T00:28:53;47.65;;;32.50;;
59074;SDS011;44860;53.020;6.738;2023-10-13T00:31:38;52.88;;;32.33;;
59074;SDS011;44860;53.020;6.738;2023-10-13T00:34:05;47.72;;;31.50;;
59074;SDS011;44860;53.020;6.738;2023-10-13T00:36:51;45.83;;;29.88;;
59074;SDS011;44860;53.020;6.738;2023-10-13T00:39:35;47.90;;;31.10;;
59074;SDS011;44860;53.020;6.738;2023-10-13T00:42:04;44.90;;;30.65;;
59074;SDS011;44860;53.020;6.738;2023-10-13T00:44:42;48.63;;;31.95;;
59074;SDS011;44860;53.020;6.738;2023-10-13T00:47:13;49.30;;;32.35;;
59074;SDS011;44860;53.020;6.738;2023-10-13T00:49:58;49.28;;;32.28;;
59074;SDS011;44860;53.020;6.738;2023-10-13T00:52:24;41.60;;;31.25;;
59074;SDS011;44860;53.020;6.738;2023-10-13T00:54:50;48.42;;;31.55;;
59074;SDS011;44860;53.020;6.738;2023-10-13T00:57:18;44.30;;;30.88;;
59074;SDS011;44860;53.020;6.738;2023-10-13T00:59:55;47.28;;;30.42;;
59074;SDS011;44860;53.020;6.738;2023-10-13T01:02:37;45.03;;;30.83;;
59074;SDS011;44860;53.020;6.738;2023-10-13T01:05:07;49.50;;;31.20;;
59074;SDS011;44860;53.020;6.738;2023-10-13T01:07:39;46.38;;;29.55;;
59074;SDS011;44860;53.020;6.738;2023-10-13T01:10:08;44.40;;;29.25;;
59074;SDS011;44860;53.020;6.738;2023-10-13T01:12:38;41.90;;;28.50;;
59074;SDS011;44860;53.020;6.738;2023-10-13T01:15:04;43.03;;;28.50;;
59074;SDS011;44860;53.020;6.738;2023-10-13T01:17:34;44.20;;;28.60;;
59074;SDS011;44860;53.020;6.738;2023-10-13T01:20:01;43.65;;;28.20;;
59074;SDS011;44860;53.020;6.738;2023-10-13T01:22:30;41.20;;;27.58;;
59074;SDS011;44860;53.020;6.738;2023-10-13T01:24:57;43.97;;;26.65;;
59074;SDS011;44860;53.020;6.738;2023-10-13T01:27:35;43.05;;;27.20;;
59074;SDS011;44860;53.020;6.738;2023-10-13T01:30:03;41.08;;;26.17;;
59074;SDS011;44860;53.020;6.738;2023-10-13T01:32:38;34.72;;;24.00;;
59074;SDS011;44860;53.020;6.738;2023-10-13T01:35:06;38.15;;;23.23;;
59074;SDS011;44860;53.020;6.738;2023-10-13T01:37:32;34.13;;;23.00;;
59074;SDS011;44860;53.020;6.738;2023-10-13T01:39:58;35.88;;;24.10;;
59074;SDS011;44860;53.020;6.738;2023-10-13T01:42:24;35.42;;;24.75;;
59074;SDS011;44860;53.020;6.738;2023-10-13T01:44:50;35.10;;;23.83;;
59074;SDS011;44860;53.020;6.738;2023-10-13T01:47:16;34.67;;;23.13;;
59074;SDS011;44860;53.020;6.738;2023-10-13T01:49:42;31.20;;;22.70;;
59074;SDS011;44860;53.020;6.738;2023-10-13T01:52:11;35.17;;;23.15;;
59074;SDS011;44860;53.020;6.738;2023-10-13T01:54:50;34.25;;;24.30;;
59074;SDS011;44860;53.020;6.738;2023-10-13T01:57:16;33.25;;;23.48;;
59074;SDS011;44860;53.020;6.738;2023-10-13T01:59:49;30.63;;;23.17;;
59074;SDS011;44860;53.020;6.738;2023-10-13T02:02:15;34.67;;;24.60;;
59074;SDS011;44860;53.020;6.738;2023-10-13T02:04:53;36.53;;;25.33;;
59074;SDS011;44860;53.020;6.738;2023-10-13T02:07:25;33.83;;;24.40;;
59074;SDS011;44860;53.020;6.738;2023-10-13T02:09:55;40.28;;;25.13;;
59074;SDS011;44860;53.020;6.738;2023-10-13T02:12:21;37.22;;;25.73;;
59074;SDS011;44860;53.020;6.738;2023-10-13T02:15:01;40.00;;;26.50;;
59074;SDS011;44860;53.020;6.738;2023-10-13T02:17:30;39.47;;;26.98;;
59074;SDS011;44860;53.020;6.738;2023-10-13T02:20:08;39.53;;;27.15;;
59074;SDS011;44860;53.020;6.738;2023-10-13T02:22:39;38.53;;;27.05;;
59074;SDS011;44860;53.020;6.738;2023-10-13T02:25:14;40.05;;;26.55;;
59074;SDS011;44860;53.020;6.738;2023-10-13T02:28:00;40.28;;;27.80;;
59074;SDS011;44860;53.020;6.738;2023-10-13T02:30:37;39.47;;;27.55;;
59074;SDS011;44860;53.020;6.738;2023-10-13T02:33:03;40.00;;;28.20;;
59074;SDS011;44860;53.020;6.738;2023-10-13T02:35:31;35.30;;;27.33;;
59074;SDS011;44860;53.020;6.738;2023-10-13T02:38:06;37.85;;;27.83;;
59074;SDS011;44860;53.020;6.738;2023-10-13T02:40:36;34.63;;;26.27;;
59074;SDS011;44860;53.020;6.738;2023-10-13T02:43:01;37.95;;;26.55;;
59074;SDS011;44860;53.020;6.738;2023-10-13T02:45:28;35.72;;;27.13;;
59074;SDS011;44860;53.020;6.738;2023-10-13T02:47:54;34.65;;;26.42;;
59074;SDS011;44860;53.020;6.738;2023-10-13T02:50:35;37.40;;;27.15;;
59074;SDS011;44860;53.020;6.738;2023-10-13T02:53:03;38.90;;;28.33;;
59074;SDS011;44860;53.020;6.738;2023-10-13T02:55:37;38.95;;;27.42;;
59074;SDS011;44860;53.020;6.738;2023-10-13T02:58:31;37.38;;;28.05;;
59074;SDS011;44860;53.020;6.738;2023-10-13T03:01:06;36.85;;;26.35;;
59074;SDS011;44860;53.020;6.738;2023-10-13T03:03:56;35.20;;;24.95;;
59074;SDS011;44860;53.020;6.738;2023-10-13T03:06:23;36.55;;;26.25;;
59074;SDS011;44860;53.020;6.738;2023-10-13T03:08:57;35.83;;;26.05;;
59074;SDS011;44860;53.020;6.738;2023-10-13T03:11:59;29.65;;;24.70;;
59074;SDS011;44860;53.020;6.738;2023-10-13T03:14:24;32.53;;;26.13;;
59074;SDS011;44860;53.020;6.738;2023-10-13T03:16:53;34.38;;;25.77;;
59074;SDS011;44860;53.020;6.738;2023-10-13T03:19:20;33.65;;;25.20;;
59074;SDS011;44860;53.020;6.738;2023-10-13T03:21:46;31.27;;;22.75;;
59074;SDS011;44860;53.020;6.738;2023-10-13T03:24:22;29.38;;;22.70;;
59074;SDS011;44860;53.020;6.738;2023-10-13T03:27:02;28.55;;;22.98;;
59074;SDS011;44860;53.020;6.738;2023-10-13T03:29:37;28.65;;;22.30;;
59074;SDS011;44860;53.020;6.738;2023-10-13T03:32:12;29.45;;;22.65;;
59074;SDS011;44860;53.020;6.738;2023-10-13T03:34:41;31.08;;;23.15;;
59074;SDS011;44860;53.020;6.738;2023-10-13T03:37:17;30.70;;;23.65;;
59074;SDS011;44860;53.020;6.738;2023-10-13T03:40:04;31.10;;;22.70;;
59074;SDS011;44860;53.020;6.738;2023-10-13T03:42:54;30.88;;;22.40;;
59074;SDS011;44860;53.020;6.738;2023-10-13T03:45:40;27.85;;;22.38;;
59074;SDS011;44860;53.020;6.738;2023-10-13T03:48:08;26.20;;;21.25;;
59074;SDS011;44860;53.020;6.738;2023-10-13T03:50:50;28.45;;;21.92;;
59074;SDS011;44860;53.020;6.738;2023-10-13T03:53:32;26.90;;;20.70;;
59074;SDS011;44860;53.020;6.738;2023-10-13T03:56:02;25.95;;;19.30;;
59074;SDS011;44860;53.020;6.738;2023-10-13T03:58:51;27.42;;;19.92;;
59074;SDS011;44860;53.020;6.738;2023-10-13T04:01:19;27.17;;;19.63;;
59074;SDS011;44860;53.020;6.738;2023-10-13T04:03:54;27.00;;;19.95;;
59074;SDS011;44860;53.020;6.738;2023-10-13T04:06:28;25.33;;;19.02;;
59074;SDS011;44860;53.020;6.738;2023-10-13T04:09:15;28.75;;;20.10;;
59074;SDS011;44860;53.020;6.738;2023-10-13T04:14:40;22.63;;;18.67;;
59074;SDS011;44860;53.020;6.738;2023-10-13T04:17:27;26.88;;;20.02;;
59074;SDS011;44860;53.020;6.738;2023-10-13T04:19:58;24.60;;;18.48;;
59074;SDS011;44860;53.020;6.738;2023-10-13T04:22:33;25.58;;;18.85;;
59074;SDS011;44860;53.020;6.738;2023-10-13T04:27:58;29.10;;;19.20;;
59074;SDS011;44860;53.020;6.738;2023-10-13T04:30:40;29.17;;;20.40;;
59074;SDS011;44860;53.020;6.738;2023-10-13T04:33:25;25.77;;;19.58;;
59074;SDS011;44860;53.020;6.738;2023-10-13T04:36:13;37.92;;;31.15;;
59074;SDS011;44860;53.020;6.738;2023-10-13T04:38:43;29.55;;;22.65;;
59074;SDS011;44860;53.020;6.738;2023-10-13T04:41:22;27.20;;;20.45;;
59074;SDS011;44860;53.020;6.738;2023-10-13T04:43:57;28.98;;;21.55;;
59074;SDS011;44860;53.020;6.738;2023-10-13T04:46:44;27.60;;;21.20;;
59074;SDS011;44860;53.020;6.738;2023-10-13T04:49:12;27.45;;;20.42;;
59074;SDS011;44860;53.020;6.738;2023-10-13T04:51:58;26.27;;;20.42;;
59074;SDS011;44860;53.020;6.738;2023-10-13T04:54:34;25.50;;;20.13;;
59074;SDS011;44860;53.020;6.738;2023-10-13T04:57:10;26.27;;;19.77;;
59074;SDS011;44860;53.020;6.738;2023-10-13T04:59:49;24.58;;;19.20;;
59074;SDS011;44860;53.020;6.738;2023-10-13T05:02:33;25.52;;;19.48;;
59074;SDS011;44860;53.020;6.738;2023-10-13T05:05:00;26.27;;;19.80;;
59074;SDS011;44860;53.020;6.738;2023-10-13T05:07:45;22.83;;;18.63;;
59074;SDS011;44860;53.020;6.738;2023-10-13T05:10:29;26.30;;;19.55;;
59074;SDS011;44860;53.020;6.738;2023-10-13T05:13:14;21.25;;;17.40;;
59074;SDS011;44860;53.020;6.738;2023-10-13T05:15:59;21.05;;;18.10;;
59074;SDS011;44860;53.020;6.738;2023-10-13T05:18:44;46.10;;;38.80;;
59074;SDS011;44860;53.020;6.738;2023-10-13T05:21:28;19.35;;;17.00;;
59074;SDS011;44860;53.020;6.738;2023-10-13T05:24:13;19.92;;;16.45;;
59074;SDS011;44860;53.020;6.738;2023-10-13T05:26:57;19.63;;;16.00;;
59074;SDS011;44860;53.020;6.738;2023-10-13T05:29:41;18.08;;;15.00;;
59074;SDS011;44860;53.020;6.738;2023-10-13T05:32:26;19.33;;;14.30;;
59074;SDS011;44860;53.020;6.738;2023-10-13T05:35:14;16.23;;;13.82;;
59074;SDS011;44860;53.020;6.738;2023-10-13T05:37:59;16.05;;;13.48;;
59074;SDS011;44860;53.020;6.738;2023-10-13T05:40:53;14.48;;;12.23;;
59074;SDS011;44860;53.020;6.738;2023-10-13T05:46:49;14.18;;;10.77;;
59074;SDS011;44860;53.020;6.738;2023-10-13T05:49:26;14.70;;;11.05;;
59074;SDS011;44860;53.020;6.738;2023-10-13T05:52:10;12.32;;;10.10;;
59074;SDS011;44860;53.020;6.738;2023-10-13T05:54:44;12.45;;;9.63;;
59074;SDS011;44860;53.020;6.738;2023-10-13T05:57:29;11.00;;;8.38;;
59074;SDS011;44860;53.020;6.738;2023-10-13T06:00:24;10.93;;;7.78;;
59074;SDS011;44860;53.020;6.738;2023-10-13T06:03:08;9.73;;;8.18;;
59074;SDS011;44860;53.020;6.738;2023-10-13T06:05:53;9.27;;;7.28;;
59074;SDS011;44860;53.020;6.738;2023-10-13T06:08:37;8.40;;;7.50;;
59074;SDS011;44860;53.020;6.738;2023-10-13T06:14:25;8.35;;;6.97;;
59074;SDS011;44860;53.020;6.738;2023-10-13T06:17:09;8.32;;;6.95;;
59074;SDS011;44860;53.020;6.738;2023-10-13T06:19:53;10.27;;;6.68;;
59074;SDS011;44860;53.020;6.738;2023-10-13T06:22:37;8.77;;;6.90;;
59074;SDS011;44860;53.020;6.738;2023-10-13T06:25:21;8.82;;;7.18;;
59074;SDS011;44860;53.020;6.738;2023-10-13T06:28:05;8.10;;;7.13;;
59074;SDS011;44860;53.020;6.738;2023-10-13T06:30:56;8.00;;;7.20;;
59074;SDS011;44860;53.020;6.738;2023-10-13T06:33:22;9.40;;;7.15;;
59074;SDS011;44860;53.020;6.738;2023-10-13T06:35:54;7.80;;;7.00;;
59074;SDS011;44860;53.020;6.738;2023-10-13T06:38:23;7.38;;;6.25;;
59074;SDS011;44860;53.020;6.738;2023-10-13T06:40:49;9.18;;;6.93;;
59074;SDS011;44860;53.020;6.738;2023-10-13T06:43:17;8.35;;;6.43;;
59074;SDS011;44860;53.020;6.738;2023-10-13T06:45:47;7.60;;;6.25;;
59074;SDS011;44860;53.020;6.738;2023-10-13T06:48:23;9.63;;;6.32;;
59074;SDS011;44860;53.020;6.738;2023-10-13T06:50:50;6.93;;;6.10;;
59074;SDS011;44860;53.020;6.738;2023-10-13T06:53:21;9.23;;;5.82;;
59074;SDS011;44860;53.020;6.738;2023-10-13T06:55:47;9.35;;;5.75;;
59074;SDS011;44860;53.020;6.738;2023-10-13T06:58:14;7.38;;;5.43;;
59074;SDS011;44860;53.020;6.738;2023-10-13T07:00:42;9.30;;;5.40;;
59074;SDS011;44860;53.020;6.738;2023-10-13T07:03:24;6.40;;;5.00;;
59074;SDS011;44860;53.020;6.738;2023-10-13T07:05:50;6.50;;;4.40;;
59074;SDS011;44860;53.020;6.738;2023-10-13T07:08:17;5.72;;;4.00;;
59074;SDS011;44860;53.020;6.738;2023-10-13T07:10:50;6.38;;;4.07;;
59074;SDS011;44860;53.020;6.738;2023-10-13T07:13:27;6.07;;;4.43;;
59074;SDS011;44860;53.020;6.738;2023-10-13T07:16:03;7.55;;;4.63;;
59074;SDS011;44860;53.020;6.738;2023-10-13T07:18:38;7.72;;;4.60;;
59074;SDS011;44860;53.020;6.738;2023-10-13T07:21:18;7.68;;;4.60;;
59074;SDS011;44860;53.020;6.738;2023-10-13T07:23:54;9.48;;;4.43;;
59074;SDS011;44860;53.020;6.738;2023-10-13T07:26:33;7.78;;;4.22;;
59074;SDS011;44860;53.020;6.738;2023-10-13T07:28:59;7.95;;;4.35;;
59074;SDS011;44860;53.020;6.738;2023-10-13T07:31:25;10.68;;;4.50;;
59074;SDS011;44860;53.020;6.738;2023-10-13T07:33:52;10.57;;;4.90;;
59074;SDS011;44860;53.020;6.738;2023-10-13T07:36:28;8.48;;;4.50;;
59074;SDS011;44860;53.020;6.738;2023-10-13T07:39:04;9.98;;;4.38;;
59074;SDS011;44860;53.020;6.738;2023-10-13T07:41:48;11.23;;;4.72;;
59074;SDS011;44860;53.020;6.738;2023-10-13T07:44:19;15.70;;;5.50;;
59074;SDS011;44860;53.020;6.738;2023-10-13T07:46:50;12.15;;;4.97;;
59074;SDS011;44860;53.020;6.738;2023-10-13T07:49:25;10.48;;;4.82;;
59074;SDS011;44860;53.020;6.738;2023-10-13T07:51:59;12.95;;;5.40;;
59074;SDS011;44860;53.020;6.738;2023-10-13T07:54:44;10.43;;;5.13;;
59074;SDS011;44860;53.020;6.738;2023-10-13T07:57:29;15.20;;;5.30;;
59074;SDS011;44860;53.020;6.738;2023-10-13T07:59:55;11.93;;;5.18;;
59074;SDS011;44860;53.020;6.738;2023-10-13T08:02:33;10.43;;;5.30;;
59074;SDS011;44860;53.020;6.738;2023-10-13T08:05:15;12.63;;;5.88;;
59074;SDS011;44860;53.020;6.738;2023-10-13T08:08:04;13.50;;;5.50;;
59074;SDS011;44860;53.020;6.738;2023-10-13T08:10:39;11.60;;;5.40;;
59074;SDS011;44860;53.020;6.738;2023-10-13T08:13:07;13.18;;;6.10;;
59074;SDS011;44860;53.020;6.738;2023-10-13T08:15:39;13.35;;;5.70;;
59074;SDS011;44860;53.020;6.738;2023-10-13T08:18:12;14.15;;;5.88;;
59074;SDS011;44860;53.020;6.738;2023-10-13T08:20:55;14.73;;;5.78;;
59074;SDS011;44860;53.020;6.738;2023-10-13T08:23:28;11.52;;;6.00;;
59074;SDS011;44860;53.020;6.738;2023-10-13T08:26:14;15.40;;;5.97;;
59074;SDS011;44860;53.020;6.738;2023-10-13T08:28:59;15.15;;;6.25;;
59074;SDS011;44860;53.020;6.738;2023-10-13T08:31:43;13.43;;;6.53;;
59074;SDS011;44860;53.020;6.738;2023-10-13T08:34:14;13.55;;;6.38;;
59074;SDS011;44860;53.020;6.738;2023-10-13T08:39:13;13.38;;;6.63;;
59074;SDS011;44860;53.020;6.738;2023-10-13T08:42:08;12.95;;;6.55;;
59074;SDS011;44860;53.020;6.738;2023-10-13T08:44:38;15.57;;;6.72;;
59074;SDS011;44860;53.020;6.738;2023-10-13T08:47:11;13.50;;;6.70;;
59074;SDS011;44860;53.020;6.738;2023-10-13T08:49:43;12.27;;;7.13;;
59074;SDS011;44860;53.020;6.738;2023-10-13T08:52:15;18.02;;;7.10;;
59074;SDS011;44860;53.020;6.738;2023-10-13T08:55:03;15.70;;;7.00;;
59074;SDS011;44860;53.020;6.738;2023-10-13T08:57:59;17.23;;;8.23;;
59074;SDS011;44860;53.020;6.738;2023-10-13T09:00:38;21.40;;;8.32;;
59074;SDS011;44860;53.020;6.738;2023-10-13T09:03:36;19.38;;;8.18;;
59074;SDS011;44860;53.020;6.738;2023-10-13T09:06:05;16.05;;;8.60;;
59074;SDS011;44860;53.020;6.738;2023-10-13T09:08:34;17.20;;;8.65;;
59074;SDS011;44860;53.020;6.738;2023-10-13T09:11:03;22.15;;;9.43;;
59074;SDS011;44860;53.020;6.738;2023-10-13T09:13:39;18.58;;;8.70;;
59074;SDS011;44860;53.020;6.738;2023-10-13T09:16:11;19.40;;;8.82;;
59074;SDS011;44860;53.020;6.738;2023-10-13T09:19:01;20.92;;;9.10;;
59074;SDS011;44860;53.020;6.738;2023-10-13T09:21:37;21.08;;;9.48;;
59074;SDS011;44860;53.020;6.738;2023-10-13T09:24:13;19.00;;;9.25;;
59074;SDS011;44860;53.020;6.738;2023-10-13T09:26:57;15.85;;;8.90;;
59074;SDS011;44860;53.020;6.738;2023-10-13T09:29:26;16.92;;;9.32;;
59074;SDS011;44860;53.020;6.738;2023-10-13T09:31:58;13.75;;;8.70;;
59074;SDS011;44860;53.020;6.738;2023-10-13T09:34:25;19.05;;;9.00;;
59074;SDS011;44860;53.020;6.738;2023-10-13T09:36:59;16.95;;;8.32;;
59074;SDS011;44860;53.020;6.738;2023-10-13T09:39:28;17.10;;;8.88;;
59074;SDS011;44860;53.020;6.738;2023-10-13T09:42:09;18.95;;;8.43;;
59074;SDS011;44860;53.020;6.738;2023-10-13T09:44:37;16.73;;;8.38;;
59074;SDS011;44860;53.020;6.738;2023-10-13T09:47:05;22.70;;;8.52;;
59074;SDS011;44860;53.020;6.738;2023-10-13T09:49:45;14.95;;;8.30;;
59074;SDS011;44860;53.020;6.738;2023-10-13T09:52:14;15.68;;;8.30;;
59074;SDS011;44860;53.020;6.738;2023-10-13T09:54:48;14.73;;;7.43;;
59074;SDS011;44860;53.020;6.738;2023-10-13T09:57:34;14.48;;;7.10;;
59074;SDS011;44860;53.020;6.738;2023-10-13T10:00:10;15.98;;;7.55;;
59074;SDS011;44860;53.020;6.738;2023-10-13T10:02:57;16.42;;;7.55;;
59074;SDS011;44860;53.020;6.738;2023-10-13T10:05:27;15.25;;;7.28;;
59074;SDS011;44860;53.020;6.738;2023-10-13T10:07:59;14.43;;;6.82;;
59074;SDS011;44860;53.020;6.738;2023-10-13T10:10:27;12.95;;;6.90;;
59074;SDS011;44860;53.020;6.738;2023-10-13T10:14:07;14.63;;;6.20;;
59074;SDS011;44860;53.020;6.738;2023-10-13T10:16:24;17.67;;;7.28;;
59074;SDS011;44860;53.020;6.738;2023-10-13T10:19:06;14.10;;;6.72;;
59074;SDS011;44860;53.020;6.738;2023-10-13T10:21:33;17.95;;;6.75;;
59074;SDS011;44860;53.020;6.738;2023-10-13T10:24:00;17.00;;;7.38;;
59074;SDS011;44860;53.020;6.738;2023-10-13T10:26:32;16.77;;;7.07;;
59074;SDS011;44860;53.020;6.738;2023-10-13T10:28:58;24.25;;;7.38;;
59074;SDS011;44860;53.020;6.738;2023-10-13T10:31:32;16.42;;;6.85;;
59074;SDS011;44860;53.020;6.738;2023-10-13T10:34:15;16.45;;;6.82;;
59074;SDS011;44860;53.020;6.738;2023-10-13T10:36:46;19.63;;;7.05;;
59074;SDS011;44860;53.020;6.738;2023-10-13T10:39:12;14.38;;;6.43;;
59074;SDS011;44860;53.020;6.738;2023-10-13T10:41:38;16.52;;;6.35;;
59074;SDS011;44860;53.020;6.738;2023-10-13T10:44:17;16.15;;;6.40;;
59074;SDS011;44860;53.020;6.738;2023-10-13T10:47:11;13.65;;;6.88;;
59074;SDS011;44860;53.020;6.738;2023-10-13T10:49:55;17.98;;;6.43;;
59074;SDS011;44860;53.020;6.738;2023-10-13T10:52:22;15.23;;;6.70;;
59074;SDS011;44860;53.020;6.738;2023-10-13T10:54:58;18.00;;;6.93;;
59074;SDS011;44860;53.020;6.738;2023-10-13T10:57:24;16.17;;;5.78;;
59074;SDS011;44860;53.020;6.738;2023-10-13T10:59:54;16.33;;;6.47;;
59074;SDS011;44860;53.020;6.738;2023-10-13T11:02:40;17.70;;;6.10;;
59074;SDS011;44860;53.020;6.738;2023-10-13T11:05:06;14.15;;;6.13;;
59074;SDS011;44860;53.020;6.738;2023-10-13T11:07:35;18.50;;;6.53;;
59074;SDS011;44860;53.020;6.738;2023-10-13T11:10:10;19.42;;;6.53;;
59074;SDS011;44860;53.020;6.738;2023-10-13T11:12:55;19.70;;;6.28;;
59074;SDS011;44860;53.020;6.738;2023-10-13T11:15:43;18.98;;;7.05;;
59074;SDS011;44860;53.020;6.738;2023-10-13T11:18:12;17.67;;;5.80;;
59074;SDS011;44860;53.020;6.738;2023-10-13T11:20:47;21.35;;;6.93;;
59074;SDS011;44860;53.020;6.738;2023-10-13T11:23:19;18.95;;;6.00;;
59074;SDS011;44860;53.020;6.738;2023-10-13T11:25:56;16.35;;;6.00;;
59074;SDS011;44860;53.020;6.738;2023-10-13T11:28:25;19.38;;;6.10;;
59074;SDS011;44860;53.020;6.738;2023-10-13T11:30:54;17.42;;;5.78;;
59074;SDS011;44860;53.020;6.738;2023-10-13T11:33:24;19.65;;;6.75;;
59074;SDS011;44860;53.020;6.738;2023-10-13T11:35:52;18.75;;;6.57;;
59074;SDS011;44860;53.020;6.738;2023-10-13T11:38:19;20.13;;;6.45;;
59074;SDS011;44860;53.020;6.738;2023-10-13T11:40:51;18.80;;;6.95;;
59074;SDS011;44860;53.020;6.738;2023-10-13T11:43:26;17.67;;;5.97;;
59074;SDS011;44860;53.020;6.738;2023-10-13T11:45:52;18.10;;;6.05;;
59074;SDS011;44860;53.020;6.738;2023-10-13T11:48:38;16.73;;;6.45;;
59074;SDS011;44860;53.020;6.738;2023-10-13T11:51:08;16.70;;;6.28;;
59074;SDS011;44860;53.020;6.738;2023-10-13T11:53:43;14.45;;;5.80;;
59074;SDS011;44860;53.020;6.738;2023-10-13T11:56:21;16.58;;;6.70;;
59074;SDS011;44860;53.020;6.738;2023-10-13T11:58:47;21.30;;;6.53;;
59074;SDS011;44860;53.020;6.738;2023-10-13T12:01:13;18.30;;;6.07;;
59074;SDS011;44860;53.020;6.738;2023-10-13T12:06:24;16.63;;;6.30;;
59074;SDS011;44860;53.020;6.738;2023-10-13T12:09:08;16.45;;;6.35;;
59074;SDS011;44860;53.020;6.738;2023-10-13T12:11:47;19.17;;;6.65;;
59074;SDS011;44860;53.020;6.738;2023-10-13T12:14:19;20.10;;;7.03;;
59074;SDS011;44860;53.020;6.738;2023-10-13T12:17:05;16.48;;;7.07;;
59074;SDS011;44860;53.020;6.738;2023-10-13T12:19:35;17.70;;;6.63;;
59074;SDS011;44860;53.020;6.738;2023-10-13T12:22:03;14.82;;;6.60;;
59074;SDS011;44860;53.020;6.738;2023-10-13T12:24:33;18.45;;;7.13;;
59074;SDS011;44860;53.020;6.738;2023-10-13T12:27:04;17.77;;;6.85;;
59074;SDS011;44860;53.020;6.738;2023-10-13T12:29:52;19.13;;;7.25;;
59074;SDS011;44860;53.020;6.738;2023-10-13T12:32:18;13.93;;;7.05;;
59074;SDS011;44860;53.020;6.738;2023-10-13T12:34:48;18.20;;;7.15;;
59074;SDS011;44860;53.020;6.738;2023-10-13T12:37:30;18.45;;;7.00;;
59074;SDS011;44860;53.020;6.738;2023-10-13T12:40:09;18.55;;;7.45;;
59074;SDS011;44860;53.020;6.738;2023-10-13T12:42:54;19.50;;;7.80;;
59074;SDS011;44860;53.020;6.738;2023-10-13T12:45:45;18.15;;;7.22;;
59074;SDS011;44860;53.020;6.738;2023-10-13T12:48:30;23.25;;;7.50;;
59074;SDS011;44860;53.020;6.738;2023-10-13T12:51:15;16.95;;;7.70;;
59074;SDS011;44860;53.020;6.738;2023-10-13T12:53:56;18.63;;;7.63;;
59074;SDS011;44860;53.020;6.738;2023-10-13T12:56:39;23.02;;;7.32;;
59074;SDS011;44860;53.020;6.738;2023-10-13T12:59:09;17.35;;;7.75;;
59074;SDS011;44860;53.020;6.738;2023-10-13T13:01:38;20.13;;;8.10;;
59074;SDS011;44860;53.020;6.738;2023-10-13T13:04:11;15.70;;;7.50;;
59074;SDS011;44860;53.020;6.738;2023-10-13T13:06:43;19.02;;;7.22;;
59074;SDS011;44860;53.020;6.738;2023-10-13T13:09:09;17.05;;;7.38;;
59074;SDS011;44860;53.020;6.738;2023-10-13T13:11:35;21.45;;;7.90;;
59074;SDS011;44860;53.020;6.738;2023-10-13T13:14:07;17.52;;;7.53;;
59074;SDS011;44860;53.020;6.738;2023-10-13T13:16:34;16.88;;;6.95;;
59074;SDS011;44860;53.020;6.738;2023-10-13T13:19:00;18.38;;;7.45;;
59074;SDS011;44860;53.020;6.738;2023-10-13T13:21:35;19.05;;;7.60;;
59074;SDS011;44860;53.020;6.738;2023-10-13T13:24:04;21.85;;;8.30;;
59074;SDS011;44860;53.020;6.738;2023-10-13T13:26:36;17.42;;;7.15;;
59074;SDS011;44860;53.020;6.738;2023-10-13T13:29:05;17.55;;;7.57;;
59074;SDS011;44860;53.020;6.738;2023-10-13T13:31:34;18.17;;;7.85;;
59074;SDS011;44860;53.020;6.738;2023-10-13T13:34:06;18.65;;;8.25;;
59074;SDS011;44860;53.020;6.738;2023-10-13T13:36:34;23.45;;;7.95;;
59074;SDS011;44860;53.020;6.738;2023-10-13T13:39:00;21.20;;;8.32;;
59074;SDS011;44860;53.020;6.738;2023-10-13T13:41:26;18.13;;;7.53;;
59074;SDS011;44860;53.020;6.738;2023-10-13T13:43:52;21.55;;;8.07;;
59074;SDS011;44860;53.020;6.738;2023-10-13T13:46:22;18.77;;;8.45;;
59074;SDS011;44860;53.020;6.738;2023-10-13T13:48:50;19.73;;;8.25;;
59074;SDS011;44860;53.020;6.738;2023-10-13T13:51:23;16.35;;;7.90;;
59074;SDS011;44860;53.020;6.738;2023-10-13T13:53:52;20.30;;;7.65;;
59074;SDS011;44860;53.020;6.738;2023-10-13T13:56:19;22.55;;;8.50;;
59074;SDS011;44860;53.020;6.738;2023-10-13T13:58:45;19.85;;;8.55;;
59074;SDS011;44860;53.020;6.738;2023-10-13T14:01:12;19.10;;;7.90;;
59074;SDS011;44860;53.020;6.738;2023-10-13T14:03:43;20.95;;;8.30;;
59074;SDS011;44860;53.020;6.738;2023-10-13T14:06:13;21.30;;;8.77;;
59074;SDS011;44860;53.020;6.738;2023-10-13T14:08:53;16.02;;;8.25;;
59074;SDS011;44860;53.020;6.738;2023-10-13T14:11:25;20.17;;;8.27;;
59074;SDS011;44860;53.020;6.738;2023-10-13T14:14:08;19.35;;;8.20;;
59074;SDS011;44860;53.020;6.738;2023-10-13T14:16:39;22.88;;;8.45;;
59074;SDS011;44860;53.020;6.738;2023-10-13T14:19:13;18.67;;;8.35;;
59074;SDS011;44860;53.020;6.738;2023-10-13T14:21:52;20.77;;;8.50;;
59074;SDS011;44860;53.020;6.738;2023-10-13T14:24:21;19.55;;;8.77;;
59074;SDS011;44860;53.020;6.738;2023-10-13T14:26:55;23.13;;;9.23;;
59074;SDS011;44860;53.020;6.738;2023-10-13T14:29:27;18.73;;;8.13;;
59074;SDS011;44860;53.020;6.738;2023-10-13T14:31:52;20.70;;;8.35;;
59074;SDS011;44860;53.020;6.738;2023-10-13T14:34:18;22.98;;;8.10;;
59074;SDS011;44860;53.020;6.738;2023-10-13T14:36:47;19.83;;;8.68;;
59074;SDS011;44860;53.020;6.738;2023-10-13T14:39:13;18.85;;;8.93;;
59074;SDS011;44860;53.020;6.738;2023-10-13T14:41:39;18.27;;;8.27;;
59074;SDS011;44860;53.020;6.738;2023-10-13T14:44:05;20.23;;;8.75;;
59074;SDS011;44860;53.020;6.738;2023-10-13T14:46:32;19.20;;;8.27;;
59074;SDS011;44860;53.020;6.738;2023-10-13T14:49:04;20.17;;;7.88;;
59074;SDS011;44860;53.020;6.738;2023-10-13T14:51:31;21.50;;;8.90;;
59074;SDS011;44860;53.020;6.738;2023-10-13T14:53:57;18.15;;;8.23;;
59074;SDS011;44860;53.020;6.738;2023-10-13T14:56:29;19.90;;;8.40;;
59074;SDS011;44860;53.020;6.738;2023-10-13T14:58:54;19.33;;;8.45;;
59074;SDS011;44860;53.020;6.738;2023-10-13T15:01:21;15.90;;;8.07;;
59074;SDS011;44860;53.020;6.738;2023-10-13T15:03:48;19.83;;;8.50;;
59074;SDS011;44860;53.020;6.738;2023-10-13T15:06:24;19.63;;;8.15;;
59074;SDS011;44860;53.020;6.738;2023-10-13T15:08:54;19.00;;;8.40;;
59074;SDS011;44860;53.020;6.738;2023-10-13T15:11:21;19.98;;;8.88;;
59074;SDS011;44860;53.020;6.738;2023-10-13T15:13:54;20.50;;;9.18;;
59074;SDS011;44860;53.020;6.738;2023-10-13T15:16:24;23.48;;;9.30;;
59074;SDS011;44860;53.020;6.738;2023-10-13T15:18:52;24.25;;;9.73;;
59074;SDS011;44860;53.020;6.738;2023-10-13T15:21:18;24.08;;;10.60;;
59074;SDS011;44860;53.020;6.738;2023-10-13T15:23:46;25.05;;;10.65;;
59074;SDS011;44860;53.020;6.738;2023-10-13T15:26:12;19.67;;;10.27;;
59074;SDS011;44860;53.020;6.738;2023-10-13T15:28:42;22.95;;;10.40;;
59074;SDS011;44860;53.020;6.738;2023-10-13T15:31:16;22.85;;;9.93;;